Date,TemperatureHighF,TemperatureAvgF,TemperatureLowF,DewpointHighF,DewpointAvgF,DewpointLowF,HumidityHigh,HumidityAvg,HumidityLow,PressureMaxIn,PressureMinIn,WindSpeedMaxMPH,WindSpeedAvgMPH,GustSpeedMaxMPH,PrecipitationSumIn
2013-1-1,24.1,14.3,8.4,7.2,0.7,-6.0,65,55,43,29.97,29.85,15,6,17,0.00
2013-1-2,31.8,25.6,13.8,19.0,10.4,-2.7,71,53,41,30.06,29.85,26,14,28,0.00
2013-1-3,24.4,18.7,9.7,9.7,2.7,-7.1,56,49,42,30.09,29.94,14,7,14,0.00
2013-1-4,30.9,19.1,8.6,8.4,0.4,-7.9,51,43,36,29.94,29.76,17,9,17,0.00
2013-1-5,37.0,25.4,15.8,15.0,6.6,-1.3,53,44,39,30.00,29.73,26,14,232,0.00
2013-1-6,32.9,21.6,10.9,13.7,4.7,-6.2,57,48,41,30.00,29.65,16,8,17,0.00
2013-1-7,37.9,26.5,15.8,15.8,8.9,3.8,63,48,39,29.76,29.59,15,6,16,0.00
2013-1-8,45.3,30.0,15.1,21.2,11.6,-1.0,56,46,38,29.91,29.53,17,7,18,0.00
2013-1-9,43.3,32.9,19.4,21.0,15.0,4.1,54,47,39,30.06,29.85,23,10,23,0.00
2013-1-10,38.8,34.2,30.0,29.7,22.3,13.5,79,62,49,29.85,29.23,23,14,23,0.00
2013-1-11,35.8,26.7,10.8,30.0,19.5,-0.6,81,74,60,29.56,29.05,33,12,33,0.00
2013-1-12,14.9,8.5,2.5,2.5,-5.6,-14.4,60,52,43,29.73,29.56,27,14,27,0.00
2013-1-13,16.5,6.2,-3.5,-1.8,-11.8,-19.9,46,42,40,29.82,29.70,15,8,15,0.00
2013-1-14,21.4,10.5,-1.3,3.3,-6.6,-19.8,52,45,40,29.88,29.76,94,5,94,0.00
2013-1-15,30.6,14.8,-3.1,14.3,-2.0,-16.3,54,47,33,29.76,29.59,22,7,26,0.00
2013-1-16,44.8,35.0,26.8,16.5,13.1,7.6,49,40,31,29.85,29.59,33,15,34,0.00
2013-1-17,47.1,33.3,23.4,15.2,10.3,5.2,46,38,27,29.97,29.70,17,9,17,0.00
2013-1-18,55.8,36.7,23.2,16.2,8.2,-1.5,56,34,12,29.70,29.50,24,9,24,0.00
2013-1-19,52.7,38.6,27.0,13.2,7.0,-2.3,49,29,13,29.70,5.28,28,12,28,0.00
2013-1-20,38.8,24.1,16.2,20.9,6.9,-0.5,61,48,36,29.79,29.62,31,8,31,0.00
2013-1-21,32.0,21.4,11.3,14.9,6.9,-0.2,61,53,42,29.73,29.56,17,7,19,0.00
2013-1-22,54.5,30.3,18.7,32.2,9.3,-5.2,76,48,13,29.59,29.50,20,5,20,0.00
2013-1-23,41.7,29.0,18.3,11.8,6.3,0.6,48,38,29,29.70,29.53,17,9,18,0.00
2013-1-24,33.1,22.0,10.6,12.9,4.4,-6.1,57,46,42,29.70,29.44,25,13,25,0.00
2013-1-25,51.3,35.9,21.0,18.5,12.0,3.5,52,38,27,29.67,29.56,22,9,22,0.00
2013-1-26,53.4,39.1,25.7,22.0,14.4,8.1,50,37,26,29.56,29.26,18,8,18,0.00
2013-1-27,52.2,40.5,34.2,38.4,25.3,17.6,71,55,43,29.26,29.17,13,6,13,0.04
2013-1-28,43.0,35.2,28.8,35.3,27.5,21.4,83,73,60,29.23,29.05,24,10,24,0.00
2013-1-29,32.7,28.1,22.1,25.0,18.4,9.1,78,67,55,29.32,29.14,32,11,32,0.00
2013-1-30,32.0,22.4,10.6,12.5,4.2,-4.0,57,46,32,29.35,29.26,35,13,37,0.00
2013-1-31,30.2,22.2,15.4,13.9,3.9,-3.1,56,45,39,29.62,29.32,22,10,22,0.00
2013-2-1,49.6,32.6,17.8,23.0,14.6,4.0,69,49,28,29.56,29.41,22,9,22,0.00
2013-2-2,49.8,35.7,25.7,22.3,13.3,2.4,69,43,19,29.65,29.53,31,13,31,0.00
2013-2-3,51.6,34.3,20.1,18.6,9.9,4.0,54,38,21,29.62,29.26,26,8,26,0.00
2013-2-4,55.0,36.7,22.5,18.5,7.8,-1.5,52,33,13,29.35,29.26,20,9,20,0.00
2013-2-5,52.5,36.7,26.2,16.0,11.0,6.2,50,35,21,29.44,29.26,18,10,18,0.00
2013-2-6,59.9,42.0,28.6,18.8,12.1,2.5,45,32,12,29.35,29.17,20,9,20,0.00
2013-2-7,50.4,38.4,27.9,25.1,9.5,-5.8,71,35,14,29.53,29.35,20,11,20,0.00
2013-2-8,56.1,37.7,22.1,17.6,7.8,-1.0,43,30,17,29.44,29.08,38,19,232,0.00
2013-2-9,51.8,41.2,27.0,25.3,16.1,6.8,77,40,19,28.97,27.67,33,16,33,0.08
2013-2-10,33.6,26.7,20.8,20.4,13.3,2.9,76,58,43,27.76,27.25,44,24,44,0.00
2013-2-11,31.1,22.3,11.5,6.4,2.5,-4.0,51,42,33,27.84,21.11,21,8,21,0.00
2013-2-12,38.1,25.0,9.0,11.6,4.0,-6.3,53,41,29,21.11,21.11,24,10,25,0.00
2013-2-13,48.9,34.7,19.6,21.9,12.2,2.2,63,40,26,21.11,21.11,31,14,31,0.00
2013-2-14,36.9,29.8,18.7,21.1,12.9,5.1,65,50,32,21.11,21.11,30,12,30,0.00
2013-2-15,31.1,21.3,10.9,11.1,4.1,-1.2,64,48,31,21.11,21.11,26,9,26,0.00
2013-2-16,54.5,37.7,18.1,17.2,11.0,0.7,56,35,18,21.11,21.11,34,13,34,0.00
2013-2-17,56.5,38.8,24.4,17.9,9.3,-0.3,48,33,12,21.11,21.11,31,10,31,0.00
2013-2-18,39.0,31.3,17.4,17.0,10.1,1.7,59,42,29,21.11,21.11,33,15,33,0.00
2013-2-19,39.2,25.3,13.8,13.0,5.4,-4.8,58,43,30,21.11,21.11,28,12,29,0.00
2013-2-20,25.3,18.9,14.2,9.2,0.7,-9.0,66,45,32,21.11,21.11,32,20,32,0.00
2013-2-21,18.5,15.8,10.4,9.1,5.4,0.6,66,63,57,21.11,21.11,24,12,24,0.00
2013-2-22,29.8,16.1,1.8,11.2,2.7,-7.6,64,55,43,21.11,21.11,12,5,12,0.00
2013-2-23,36.3,21.4,7.0,16.0,5.1,-5.4,56,49,41,21.11,21.11,10,5,10,0.04
2013-2-24,31.1,27.5,22.8,18.3,14.7,8.1,66,58,51,21.11,21.11,28,12,28,0.00
2013-2-25,34.5,25.3,14.5,15.4,8.6,0.9,55,49,43,21.11,21.11,10,6,10,0.00
2013-2-26,34.3,22.4,8.6,12.1,5.2,-3.9,56,48,37,21.11,21.11,13,8,13,0.00
2013-2-27,35.2,30.1,22.8,20.5,12.6,0.0,62,48,41,21.11,21.11,32,14,32,0.00
2013-2-28,41.5,29.3,17.6,17.0,9.6,2.6,57,44,30,21.11,21.11,19,8,19,0.00
2013-3-1,39.7,31.0,22.1,19.9,14.1,8.7,66,50,39,21.11,21.11,23,7,23,0.00
2013-3-2,56.8,41.4,25.9,27.2,19.7,9.4,64,43,26,21.11,21.11,26,9,26,0.00
2013-3-3,65.1,47.0,32.5,26.3,20.3,15.7,58,38,15,21.11,21.11,31,9,31,0.00
2013-3-4,44.4,34.4,22.3,20.7,6.9,-7.9,51,32,18,21.11,21.11,35,19,35,0.00
2013-3-5,38.8,27.1,18.3,3.5,-1.5,-6.6,43,30,16,21.11,21.11,27,13,28,0.00
2013-3-6,44.1,30.3,19.9,15.9,9.4,-1.2,59,42,30,21.11,21.11,37,20,38,0.00
2013-3-7,53.4,35.9,23.7,25.6,17.1,8.7,66,48,27,21.11,21.11,18,9,18,0.00
2013-3-8,52.3,39.8,27.0,30.4,21.4,13.5,63,49,31,21.11,21.11,26,12,26,0.00
2013-3-9,50.0,35.5,28.4,42.0,29.2,22.3,85,78,63,21.11,21.11,33,15,33,0.00
2013-3-11,47.1,38.0,21.4,22.2,18.0,7.3,58,45,32,21.11,21.11,23,11,25,0.00
2013-3-12,42.1,33.9,25.5,20.0,6.0,-7.2,57,33,18,21.11,21.11,33,13,33,0.00
2013-3-13,63.7,41.8,23.7,24.0,12.3,-0.4,44,31,13,21.11,21.11,17,8,17,0.00
2013-3-14,70.0,53.0,39.6,24.8,17.9,8.4,46,28,12,21.11,21.11,15,9,16,0.00
2013-3-15,75.6,54.8,37.4,27.6,17.1,5.8,52,28,8,21.11,21.11,28,12,28,0.00
2013-3-16,47.7,38.0,28.9,22.7,17.5,12.1,63,44,30,21.11,21.11,26,12,26,0.00
2013-3-17,53.1,33.5,27.7,31.2,21.4,14.1,80,63,27,21.11,21.11,33,15,35,0.04
2013-3-18,46.4,34.5,23.0,15.0,7.2,-3.5,61,35,15,21.11,21.11,26,12,27,0.00
2013-3-19,47.5,32.9,21.7,17.1,6.9,-0.2,58,35,14,21.11,21.11,32,8,33,0.00
2013-3-20,49.6,33.2,14.5,7.8,3.2,-4.4,51,30,16,21.11,21.11,33,14,33,0.00
2013-3-21,46.8,35.4,24.4,24.2,12.3,5.1,69,40,24,21.11,21.11,34,17,34,0.00
2013-3-22,46.4,36.5,26.8,25.2,18.1,12.9,71,49,30,21.11,21.11,16,4,16,0.00
2013-3-23,32.5,25.0,18.5,21.4,12.2,3.0,72,58,44,21.11,21.11,31,16,31,0.00
2013-3-24,30.2,19.0,7.3,8.5,1.7,-6.8,54,47,35,21.11,21.11,28,12,28,0.00
2013-3-25,31.6,20.2,8.1,4.9,0.1,-6.3,54,41,31,21.11,21.11,23,9,23,0.00
2013-3-26,41.0,23.6,10.4,13.8,2.9,-5.8,53,41,26,21.11,21.11,26,9,27,0.00
2013-3-27,55.8,46.6,35.2,21.7,15.1,9.3,53,29,17,21.11,21.11,11,5,11,0.00
2013-3-28,63.3,47.0,30.7,26.8,20.3,13.0,58,37,18,21.11,21.11,26,11,26,0.00
2013-3-29,71.4,51.8,36.0,34.1,24.8,18.4,54,38,14,21.11,21.11,35,11,35,0.00
2013-3-30,62.6,48.9,36.7,29.1,24.6,21.5,68,41,23,21.11,21.11,31,10,33,0.00
2013-3-31,68.5,46.6,30.6,34.9,19.6,5.6,74,43,10,21.11,21.11,33,13,232,0.00
2013-4-1,50.5,38.4,28.6,18.8,13.6,0.0,56,38,21,21.11,21.11,28,8,28,0.00
2013-4-2,50.7,39.2,27.0,20.2,15.2,9.6,57,39,26,21.11,21.11,24,10,24,0.00
2013-4-3,55.4,42.1,30.2,26.9,16.6,7.5,65,40,15,21.11,21.11,28,13,30,0.00
2013-4-4,63.9,46.0,27.1,25.8,20.4,14.8,64,39,21,21.11,21.11,19,9,20,0.00
2013-4-5,75.2,58.3,41.5,24.6,15.1,4.6,40,22,8,21.11,21.11,33,12,33,0.00
2013-4-6,68.7,57.4,44.6,26.2,15.3,2.3,44,22,10,21.11,21.11,34,14,34,0.00
2013-4-7,68.7,54.8,45.3,40.8,20.4,4.1,64,28,12,21.11,21.11,22,7,22,0.04
2013-4-8,76.8,56.2,35.1,42.4,25.0,14.4,75,35,10,21.11,21.11,48,14,48,0.04
2013-4-9,24.1,15.4,14.0,14.4,5.3,3.7,66,64,56,21.11,21.11,0,0,0,0.04
2013-4-10,25.9,21.2,15.4,11.4,6.7,2.5,65,53,45,30.03,21.11,0,0,0,0.00
2013-4-11,37.4,26.6,13.6,15.2,10.5,2.7,63,51,39,29.94,29.73,27,8,29,0.00
2013-4-12,50.2,36.9,26.6,28.7,19.5,12.5,66,50,28,30.03,29.85,22,9,22,0.00
2013-4-13,66.2,46.2,26.1,32.5,24.5,13.7,67,45,24,30.03,29.41,31,13,33,0.04
2013-4-14,50.5,45.0,33.4,38.9,16.3,-0.6,70,33,14,29.79,29.38,49,21,49,0.00
2013-4-15,44.8,33.9,27.0,14.2,10.0,5.6,53,37,28,30.06,29.79,23,11,23,0.00
2013-4-16,37.8,32.9,27.1,26.3,19.2,13.6,74,57,47,30.12,29.97,19,12,20,0.04
2013-4-17,34.5,28.3,24.6,24.0,21.1,14.9,79,74,59,30.09,29.91,24,14,24,0.00
2013-4-18,31.3,26.8,22.1,16.1,10.7,8.1,70,51,38,30.09,30.00,28,16,28,0.00
2013-4-19,53.1,37.8,21.6,24.3,16.5,8.6,61,43,27,30.06,29.97,26,12,26,0.00
2013-4-20,56.1,43.4,30.4,21.0,18.8,0.0,52,38,25,30.03,29.91,27,15,232,0.00
2013-4-21,65.7,50.3,37.2,34.7,25.7,15.8,69,43,15,30.06,29.97,26,11,26,0.00
2013-4-22,44.2,38.5,28.9,35.1,31.1,20.2,79,74,68,30.09,29.91,40,15,40,0.04
2013-4-24,55.6,47.0,32.5,16.5,5.2,-0.9,39,19,12,30.21,30.09,35,14,36,0.00
2013-4-25,72.5,51.7,27.3,20.3,10.6,3.7,51,24,9,30.18,29.85,32,11,32,0.00
2013-4-26,72.1,57.9,40.3,23.5,12.1,0.0,48,20,9,30.15,29.91,28,11,28,0.00
2013-4-27,79.3,61.5,40.5,26.7,13.6,4.1,37,18,7,30.12,29.91,17,6,19,0.00
2013-4-28,82.6,63.5,41.5,27.3,14.7,6.0,44,19,6,29.91,29.79,26,13,27,0.00
2013-4-29,84.6,66.0,47.5,32.8,19.4,7.4,43,20,6,29.88,29.56,30,11,30,0.00
2013-4-30,65.1,55.0,41.2,27.5,19.2,3.4,51,27,12,29.97,29.59,38,17,38,0.00
2013-5-1,41.2,31.8,28.9,27.0,24.1,19.9,80,73,50,30.53,29.97,35,17,35,0.20
2013-5-2,50.2,38.3,28.0,24.9,17.8,11.5,78,46,24,30.59,30.32,23,9,24,0.04
2013-5-3,58.5,44.7,30.2,20.3,11.0,2.2,53,29,12,30.32,30.06,23,8,23,0.00
2013-5-4,56.8,43.7,25.9,14.2,6.2,-1.9,47,24,12,30.24,30.12,27,13,27,0.00
2013-5-5,65.7,47.4,27.5,18.0,8.2,0.1,47,23,10,30.24,30.09,17,7,17,0.00
2013-5-6,72.5,58.5,42.4,21.6,12.5,2.5,30,18,9,30.12,29.94,26,12,26,0.00
2013-5-7,70.9,58.2,48.2,43.4,34.2,20.8,67,41,28,30.00,29.88,116,16,116,0.00
2013-5-8,72.1,59.4,46.6,48.7,35.5,23.1,73,46,16,30.00,29.88,27,10,28,0.28
2013-5-9,65.1,54.7,46.8,40.7,33.7,28.3,71,47,27,30.12,29.97,26,11,26,0.00
2013-5-10,74.3,58.8,42.3,44.4,31.1,19.2,71,40,13,30.18,30.03,23,7,23,0.00
2013-5-11,73.9,55.6,44.6,32.6,16.7,6.7,47,25,10,30.35,30.18,26,10,27,0.00
2013-5-12,81.1,61.1,41.0,34.5,22.3,12.1,44,25,9,30.18,30.03,15,7,15,0.00
2013-5-13,97.5,72.5,50.4,33.6,23.2,8.7,45,21,5,30.06,29.91,15,7,15,0.00
2013-5-14,95.9,77.1,54.7,35.4,22.1,6.3,37,16,5,29.94,29.76,20,9,20,0.00
2013-5-15,83.7,69.8,60.8,26.7,18.2,14.4,20,14,9,29.97,29.82,25,14,25,0.00
2013-5-16,82.9,64.4,56.3,44.1,34.6,17.4,58,34,17,29.88,29.76,26,10,26,0.08
2013-5-17,87.4,72.3,55.8,51.3,41.9,29.6,68,38,13,29.88,29.76,41,18,41,0.00
2013-5-18,87.6,70.3,54.1,56.3,48.5,39.9,68,49,23,29.82,29.67,35,15,38,0.08
2013-5-19,57.9,55.0,52.9,48.8,45.6,41.7,81,71,59,29.82,29.67,31,12,31,1.50
2013-5-20,61.2,54.0,50.4,48.7,39.7,31.0,85,60,35,29.85,29.73,39,18,40,0.20
2013-5-21,60.1,52.9,44.8,37.8,32.2,29.6,66,46,32,29.94,29.82,35,18,35,0.00
2013-5-22,68.4,55.4,44.4,37.0,33.5,30.1,70,46,25,30.06,29.91,29,13,29,0.00
2013-5-23,70.2,58.7,46.4,39.3,35.6,32.3,70,44,27,30.18,30.06,31,15,31,0.00
2013-5-24,81.3,63.4,54.3,53.7,46.2,37.0,82,57,25,30.12,29.88,40,23,40,0.43
2013-5-25,89.2,71.5,59.4,57.6,46.0,32.9,83,46,19,30.00,29.85,38,17,38,0.00
2013-5-26,86.9,74.0,61.2,58.8,49.1,37.4,80,46,22,29.91,29.82,26,11,27,0.00
2013-5-27,73.6,65.4,57.7,59.2,48.8,28.8,80,59,24,29.85,29.70,49,13,49,0.00
2013-5-28,82.6,67.7,51.6,58.1,43.1,31.8,74,45,20,29.85,29.65,31,12,31,0.00
2013-5-29,79.9,60.8,50.9,50.3,46.3,41.6,76,61,29,29.76,29.47,34,11,34,1.02
2013-5-30,75.9,61.8,48.0,46.0,32.8,14.9,81,42,10,29.79,29.62,32,13,35,0.00
2013-5-31,71.1,59.1,45.5,38.4,26.8,18.1,67,33,14,29.94,29.76,35,19,36,0.00
2013-6-1,66.9,56.0,46.8,38.4,30.2,22.0,66,39,21,30.15,29.91,42,20,231,0.00
2013-6-2,75.7,60.4,41.2,39.6,31.0,26.0,57,36,20,30.18,29.94,30,12,30,0.00
2013-6-3,90.7,68.1,50.7,49.3,36.9,30.8,59,35,12,29.94,29.67,43,20,43,0.63
2013-6-4,74.5,64.2,57.0,50.0,39.5,33.1,73,43,25,30.12,29.82,24,12,24,0.00
2013-6-5,68.0,55.5,47.3,42.2,35.3,27.7,76,50,25,30.18,30.09,26,10,26,0.04
2013-6-6,75.6,62.3,44.8,47.4,34.8,29.5,60,38,21,30.12,30.00,13,5,13,0.00
2013-6-7,86.5,69.1,50.0,46.4,35.7,24.7,60,33,11,30.09,29.85,31,9,31,0.00
2013-6-8,74.3,63.9,53.1,53.2,42.4,31.5,70,48,25,29.97,29.70,27,11,28,0.04
2013-6-9,88.3,67.5,50.4,45.2,35.3,23.0,73,36,10,30.03,29.94,18,8,18,0.00
2013-6-10,100.4,78.0,53.2,52.9,33.4,16.1,47,25,5,29.94,29.79,28,11,29,0.00
2013-6-11,100.0,80.9,66.0,53.2,44.0,26.1,49,30,8,29.82,29.67,34,12,34,0.00
2013-6-12,87.6,72.3,58.1,56.2,41.2,26.5,72,37,13,30.12,29.79,29,14,31,0.00
2013-6-13,86.2,68.0,50.7,49.2,40.4,35.1,65,40,19,30.18,29.94,26,13,26,0.08
2013-6-14,87.1,76.6,67.5,55.1,43.4,28.8,56,33,13,29.97,29.88,33,15,34,0.00
2013-6-15,82.8,73.3,62.1,54.5,44.8,39.3,68,38,23,30.06,29.91,26,12,26,0.00
2013-6-16,88.2,70.6,58.5,59.3,44.9,31.9,70,44,15,30.09,29.94,35,14,35,0.24
2013-6-17,86.4,69.1,53.6,53.4,41.4,31.9,78,42,16,30.15,30.06,23,8,23,0.00
2013-6-18,88.3,73.0,56.8,56.0,41.9,28.9,68,38,13,30.18,29.94,33,12,33,0.16
2013-6-19,86.9,74.8,57.4,47.7,43.1,37.7,53,33,22,30.03,29.82,43,20,43,0.00
2013-6-20,99.5,77.3,64.2,54.2,48.9,39.0,68,40,13,29.85,29.79,33,12,33,0.00
2013-6-21,97.2,78.6,64.8,50.1,39.5,0.0,43,26,11,33.60,29.76,40,13,43,0.00
2013-6-22,68.2,14.4,-42.3,46.4,-0.1,-15.9,47,7,3,266.09,40.00,24,24,24,0.00
2013-6-24,95.4,83.0,70.9,61.9,50.1,42.5,72,37,18,29.85,29.73,17,10,17,0.91
2013-6-25,92.8,78.5,65.3,62.6,39.2,17.5,68,33,7,29.91,29.73,25,10,25,0.00
2013-6-26,100.6,82.8,62.6,46.8,33.9,16.1,43,22,5,30.03,29.91,17,7,17,0.00
2013-6-27,87.1,77.3,67.5,49.5,42.5,36.8,46,30,19,30.18,29.97,35,12,35,0.00
2013-6-28,90.0,77.4,64.2,55.9,39.4,24.5,69,31,10,30.21,30.09,23,10,23,0.00
2013-6-29,83.8,73.5,59.9,44.9,36.9,28.9,56,28,16,30.18,30.09,20,9,26,0.00
2013-6-30,80.6,69.9,55.8,48.0,36.0,30.2,55,30,17,30.24,30.15,16,7,17,0.00
2013-7-1,80.6,69.6,56.7,49.5,34.1,24.4,52,29,14,30.27,30.21,17,7,17,0.00
2013-7-2,87.3,71.0,53.8,35.8,25.1,13.5,39,21,8,30.27,30.12,17,6,18,0.00
2013-7-3,90.9,73.1,54.1,38.3,25.1,14.1,38,20,7,30.15,29.94,21,11,23,0.00
2013-7-4,95.2,76.3,58.5,38.0,28.1,16.5,38,20,6,29.97,29.85,25,12,26,0.00
2013-7-5,95.9,80.4,62.4,44.4,32.6,23.4,39,20,9,29.91,29.76,31,16,32,0.00
2013-7-6,97.3,81.0,63.1,45.1,36.5,16.8,43,23,6,29.91,29.79,34,9,34,0.00
2013-7-7,98.6,80.2,66.0,56.5,47.4,32.7,65,36,11,30.12,29.91,45,13,45,0.12
2013-7-8,99.7,80.6,63.5,55.7,47.4,33.2,65,35,10,30.06,29.94,23,8,24,0.00
2013-7-9,95.9,80.8,65.7,63.8,51.3,41.5,81,42,16,30.18,29.97,20,10,20,0.00
2013-7-10,90.0,73.8,66.4,57.5,49.0,40.5,67,44,19,30.24,30.06,30,11,34,0.16
2013-7-11,94.8,80.7,65.3,60.6,48.1,36.8,66,37,14,30.12,29.91,29,15,33,2.72
2013-7-12,102.6,84.4,68.7,53.4,42.7,13.6,51,28,4,29.97,29.88,23,12,23,0.00
2013-7-13,101.7,83.8,68.7,55.7,46.3,25.3,54,30,7,30.06,29.94,46,10,46,0.00
2013-7-14,83.7,73.5,67.5,62.6,55.0,47.6,76,55,33,30.21,30.00,35,11,35,4.33
2013-7-15,87.1,74.8,63.3,64.4,46.9,30.0,74,43,13,30.21,30.12,26,13,26,0.00
2013-7-16,86.9,72.6,61.7,57.3,46.9,39.3,71,44,20,30.29,30.18,29,15,232,0.00
2013-7-17,90.3,75.7,60.1,55.9,46.1,38.8,70,39,18,30.29,30.18,32,16,32,0.00
2013-7-18,98.6,81.0,64.2,56.0,44.4,37.5,65,31,13,30.18,29.97,27,12,27,0.00
2013-7-19,90.1,77.5,67.3,52.4,44.2,30.0,55,34,12,30.12,30.00,28,10,28,0.00
2013-7-20,92.5,75.5,60.6,56.1,46.3,39.4,68,40,17,30.09,29.94,42,8,42,0.00
2013-7-21,94.5,76.4,57.4,53.2,43.1,36.0,73,36,14,30.06,29.88,21,10,22,0.00
2013-7-22,90.7,79.8,65.5,51.6,43.9,38.8,47,30,19,29.97,29.88,23,10,23,0.00
2013-7-23,91.9,76.5,63.9,48.5,41.8,30.5,49,31,13,30.12,29.94,28,11,28,0.00
2013-7-24,91.6,72.6,59.5,58.5,47.0,35.6,72,45,14,30.24,30.06,32,7,32,0.39
2013-7-25,82.4,71.0,61.7,53.4,48.7,42.4,69,46,30,30.21,30.06,20,8,20,0.04
2013-7-26,79.7,67.9,60.3,53.7,44.2,36.8,73,46,22,30.29,30.15,26,9,26,0.00
2013-7-27,73.2,62.2,55.0,46.9,39.7,35.9,68,45,31,30.18,30.09,28,11,28,0.00
2013-7-28,60.6,59.3,58.1,49.5,44.1,36.9,73,58,43,30.12,30.03,25,12,25,0.00
2013-7-29,77.4,65.4,58.1,63.1,53.3,46.0,81,67,40,30.12,30.00,17,6,17,0.00
2013-7-30,88.9,74.1,60.1,67.3,50.3,40.0,90,50,19,30.24,30.06,25,8,25,0.16
2013-7-31,86.9,73.9,62.8,63.0,52.2,45.2,81,50,25,30.24,30.12,24,8,24,0.04
2013-8-1,88.7,74.1,63.9,60.3,51.3,43.3,68,48,21,30.21,29.91,33,12,33,0.12
2013-8-2,85.1,73.4,61.5,59.2,51.7,47.0,72,49,30,30.09,29.94,20,10,20,0.00
2013-8-3,76.1,69.0,65.7,59.5,54.5,46.8,72,61,37,30.24,30.09,30,12,30,0.00
2013-8-4,87.1,71.9,62.1,62.7,54.1,47.8,78,56,28,30.21,30.06,19,11,20,0.00
2013-8-5,90.0,74.8,65.7,67.5,53.2,40.1,80,51,23,30.09,29.94,30,7,32,0.00
2013-8-6,91.2,77.5,59.4,62.1,49.7,41.3,73,42,19,30.15,29.94,52,8,52,0.35
2013-8-7,83.8,69.8,59.5,54.6,48.7,44.7,78,49,29,30.12,30.00,19,8,19,0.35
2013-8-8,66.0,63.2,61.3,52.6,50.0,49.0,67,62,58,30.12,30.03,16,5,16,0.00
2013-8-9,84.2,77.3,63.1,47.2,39.2,29.2,56,27,14,30.21,30.15,13,7,14,0.00
2013-8-10,84.4,71.3,57.0,51.4,42.2,36.0,65,39,18,30.24,30.12,26,11,26,0.00
2013-8-11,91.6,72.2,61.5,59.5,49.5,35.0,70,49,18,30.18,30.09,32,7,32,0.00
2013-8-12,87.8,73.0,60.6,58.0,49.5,41.5,76,48,22,30.15,30.06,15,5,15,0.00
2013-8-13,85.3,68.1,59.0,52.7,47.2,34.7,67,50,20,30.21,30.12,29,8,29,0.08
2013-8-14,84.0,71.7,62.4,61.9,49.3,39.9,78,50,22,30.21,30.06,17,6,17,0.00
2013-8-15,84.6,70.1,55.2,56.8,46.7,36.3,74,48,20,30.15,30.06,31,8,54,0.28
2013-8-16,80.4,70.7,63.1,63.6,51.8,41.9,80,55,30,30.18,30.12,16,9,17,0.00
2013-8-17,75.6,69.0,63.3,63.9,55.2,49.6,82,63,41,30.18,30.09,22,14,22,0.00
2013-8-18,78.1,70.7,64.8,58.7,52.9,47.7,75,55,35,30.15,30.06,26,14,26,0.00
2013-8-19,93.2,77.0,60.3,62.0,48.8,36.7,70,43,14,30.09,29.97,24,9,26,0.00
2013-8-20,99.1,79.3,62.4,61.1,43.8,17.3,67,36,6,30.03,29.94,24,10,25,0.00
2013-8-21,96.3,80.3,65.1,57.3,47.5,38.7,60,36,14,30.06,29.94,35,10,35,0.00
2013-8-22,82.6,72.3,64.9,57.6,51.6,46.7,71,50,30,30.15,30.03,23,11,23,0.00
2013-8-23,87.1,75.3,65.1,65.3,52.3,39.0,81,50,20,30.12,29.94,27,10,28,0.00
2013-8-24,100.9,81.8,63.1,48.2,35.1,16.1,48,24,5,30.09,29.94,30,13,32,0.00
2013-8-25,100.9,83.8,68.4,45.9,34.6,16.1,41,21,5,30.12,30.00,28,14,28,0.00
2013-8-26,100.8,83.9,68.7,45.5,35.6,16.1,41,22,5,30.12,29.97,19,10,19,0.00
2013-8-27,100.6,83.0,65.5,45.8,33.8,16.1,48,22,5,30.06,29.94,17,8,17,0.00
2013-8-28,96.4,81.4,63.3,46.2,32.2,16.9,45,21,6,30.06,30.00,24,8,231,0.00
2013-8-29,100.6,82.9,64.0,60.3,34.8,16.1,61,26,5,30.06,29.97,15,5,15,0.00
2013-8-30,99.5,82.0,68.4,59.1,44.7,26.0,63,33,8,30.09,30.00,20,11,21,0.00
2013-8-31,94.8,83.9,70.0,50.1,43.3,38.0,49,26,14,30.09,29.91,23,7,23,0.08
2013-9-1,82.6,71.1,57.9,50.4,35.9,22.5,57,31,11,30.18,30.06,21,6,21,0.00
2013-9-2,87.6,68.3,55.9,43.8,35.4,27.8,47,31,13,30.15,30.03,20,10,20,0.00
2013-9-3,96.4,76.0,61.2,45.0,37.1,25.4,48,28,9,30.09,29.97,25,12,26,0.00
2013-9-4,96.4,80.5,64.9,46.2,36.8,24.7,41,24,9,30.15,30.06,24,11,24,0.00
2013-9-5,94.3,80.8,71.6,43.9,38.9,26.0,33,24,9,30.15,30.09,24,9,26,0.00
2013-9-7,101.1,87.8,72.7,53.0,26.7,16.5,50,15,5,30.03,29.97,17,10,23,0.00
2013-9-8,102.0,82.7,66.4,57.3,33.4,8.9,69,26,5,30.03,29.85,28,10,31,0.00
2013-9-9,94.5,77.8,63.3,50.8,39.5,16.9,59,29,6,29.97,29.82,26,11,26,0.12
2013-9-10,69.1,63.9,60.6,53.3,48.3,44.8,70,57,44,30.09,29.94,28,12,28,0.00
2013-9-12,80.4,70.3,63.1,57.2,46.7,34.5,76,47,20,30.27,30.21,24,10,24,0.00
2013-9-13,65.5,59.8,55.4,52.0,43.9,36.2,76,57,39,30.24,30.09,29,16,30,0.16
2013-9-15,62.2,59.4,57.4,51.5,45.8,40.5,77,61,48,30.27,30.15,23,10,25,0.04
2013-9-16,58.3,55.5,54.0,50.2,47.3,44.8,82,74,63,30.27,30.12,21,12,21,0.04
2013-9-17,83.1,67.6,55.0,66.3,51.3,44.1,88,61,26,30.12,29.85,21,12,21,0.00
2013-9-18,92.8,70.3,58.5,59.8,46.9,18.6,72,51,7,29.85,29.76,12,7,13,0.00
2013-9-19,65.8,58.9,51.6,40.6,33.4,29.9,52,39,28,30.18,29.94,23,7,23,0.04
2013-9-20,75.4,59.3,42.3,39.0,31.0,24.4,60,37,16,30.21,30.03,11,6,11,0.00
2013-9-21,85.3,72.8,52.0,42.3,30.7,16.7,54,26,8,30.03,26.61,23,13,25,0.00
2013-9-22,83.3,60.6,55.0,47.3,43.7,37.6,69,56,20,29.80,29.62,29,12,29,0.00
2013-9-23,71.2,61.6,54.3,45.3,36.7,32.0,63,41,25,29.89,29.57,35,18,35,0.00
2013-9-24,75.6,60.0,43.7,46.6,25.7,7.5,78,36,8,30.04,29.89,26,9,26,0.00
2013-9-25,83.5,66.5,50.5,39.5,31.2,18.1,58,30,9,29.89,29.54,39,22,39,0.00
2013-9-26,82.6,65.3,50.4,42.4,33.9,27.0,66,34,14,29.68,29.54,23,10,23,0.00
2013-9-27,62.6,54.5,46.6,42.7,37.8,31.6,75,56,33,29.77,29.65,22,12,24,0.00
2013-9-28,66.7,57.6,47.8,35.2,19.5,12.3,60,24,12,30.07,30.01,26,10,26,0.00
2013-9-29,79.7,58.8,39.2,37.0,21.8,8.5,52,29,7,30.04,29.80,23,8,23,0.00
2013-9-30,86.4,65.2,46.0,38.6,23.5,8.6,49,27,6,29.83,29.68,25,8,26,0.00
2013-10-1,73.9,60.8,47.8,36.1,22.0,8.7,47,25,9,30.01,29.77,25,10,25,0.00
2013-10-2,81.5,63.7,48.7,47.0,32.9,23.6,63,34,14,29.92,29.77,25,8,232,0.00
2013-10-3,55.8,51.6,50.0,50.1,41.7,28.2,90,72,35,29.80,29.68,28,15,28,0.00
2013-10-4,52.2,48.5,35.2,49.3,42.6,19.7,92,82,43,29.95,29.65,35,17,40,0.08
2013-10-5,46.8,42.3,36.1,16.5,14.9,13.2,44,33,29,30.09,29.98,34,21,34,0.00
2013-10-6,66.2,49.2,34.5,25.2,19.7,15.3,49,33,15,30.18,30.06,31,14,31,0.00
2013-10-7,79.5,56.5,36.3,32.0,19.2,6.4,62,31,7,30.15,29.94,17,8,17,0.00
2013-10-8,78.8,58.4,41.9,31.4,20.9,8.5,48,27,8,29.94,29.79,21,10,21,0.00
2013-10-9,70.0,56.3,40.5,36.3,27.8,20.1,57,35,22,29.94,29.79,15,8,15,0.00
2013-10-10,79.9,57.9,39.9,45.4,34.0,22.0,74,46,12,29.91,29.59,46,14,232,0.28
2013-10-11,58.3,50.5,38.8,43.4,29.8,19.2,74,47,28,30.06,29.56,40,18,42,0.04
2013-10-12,59.7,46.7,36.5,28.0,22.4,16.0,63,40,24,30.24,30.06,15,8,15,0.00
2013-10-13,62.8,52.4,38.5,38.2,24.2,18.5,52,35,18,30.27,30.03,40,21,40,0.00
2013-10-14,64.0,52.3,38.3,55.6,40.1,20.7,79,64,46,30.06,29.70,38,20,38,0.55
2013-10-15,44.8,38.2,30.4,20.8,19.0,15.7,55,46,38,30.21,30.03,35,17,35,0.00
2013-10-16,53.1,39.0,27.0,27.3,18.3,14.3,73,46,27,30.18,30.00,13,4,13,0.00
2013-10-17,49.3,39.2,29.3,24.0,18.4,14.7,59,44,30,30.15,29.97,24,10,24,0.00
2013-10-18,48.4,38.1,28.6,28.9,17.3,7.4,73,45,25,30.18,30.06,27,8,27,0.00
2013-10-19,62.6,48.3,27.3,23.8,14.1,7.8,58,29,13,30.06,29.88,24,8,24,0.00
2013-10-20,57.0,45.1,32.5,27.1,21.6,12.3,61,40,22,30.09,29.85,28,9,231,0.00
2013-10-21,58.6,48.4,30.4,32.3,22.6,17.4,72,38,25,30.15,30.03,28,10,28,0.00
2013-10-22,64.2,51.7,41.0,29.4,24.0,18.5,48,35,21,30.15,30.06,26,10,28,0.00
2013-10-23,65.8,48.6,33.8,32.1,23.3,16.9,64,39,20,30.21,30.06,21,8,21,0.00
2013-10-24,49.8,41.0,34.9,29.9,24.8,19.1,62,53,41,30.35,30.21,16,7,16,0.00
2013-10-25,60.4,44.3,31.1,32.2,23.7,18.2,66,46,27,30.27,30.09,23,8,23,0.00
2013-10-26,59.7,47.1,37.2,28.8,21.1,12.2,58,38,19,30.32,30.09,15,7,15,0.00
2013-10-27,73.2,52.3,31.8,31.6,13.9,3.7,55,27,9,30.09,29.88,21,8,232,0.00
2013-10-28,48.4,40.1,32.5,30.4,23.4,19.7,76,53,36,30.12,29.91,31,15,31,0.00
2013-10-29,36.7,34.4,31.8,31.7,28.8,26.4,82,80,73,30.09,29.97,21,8,21,0.00
2013-10-30,39.2,35.1,33.3,34.5,28.3,17.5,85,77,46,30.00,29.79,13,3,13,0.00
2013-10-31,58.1,48.4,35.4,25.3,16.1,11.5,59,29,17,29.82,29.76,35,16,35,0.00
2013-11-1,55.2,44.2,31.1,24.8,14.8,0.2,54,33,15,30.18,29.79,35,15,35,0.00
2013-11-2,59.2,41.1,24.4,20.1,10.9,4.3,52,32,14,30.21,29.79,25,11,28,0.00
2013-11-3,51.8,41.4,34.2,25.5,19.2,14.1,53,41,29,29.82,29.62,22,9,22,0.00
2013-11-4,48.6,40.3,30.9,29.2,19.4,11.4,71,45,28,30.09,29.79,33,10,33,0.00
2013-11-5,39.2,32.6,21.2,27.3,22.6,15.7,80,68,40,30.18,29.97,21,5,21,0.28
2013-11-6,44.4,30.6,16.9,29.9,18.3,11.5,82,62,40,30.29,30.12,13,3,14,0.24
2013-11-7,51.6,38.6,26.8,25.3,19.7,13.0,64,48,30,30.41,30.03,18,9,20,0.00
2013-11-8,67.3,45.0,30.9,26.0,17.8,11.4,59,38,12,30.03,29.79,33,10,33,0.00
2013-11-9,57.2,44.4,34.5,26.0,18.9,11.6,53,38,19,30.27,30.03,15,7,15,0.00
2013-11-10,58.3,42.5,31.3,32.6,24.0,16.1,62,48,36,30.27,30.09,22,10,22,0.00
2013-11-11,37.6,28.7,22.1,26.0,17.2,9.2,75,62,53,30.62,30.09,28,12,28,0.00
2013-11-12,46.2,31.7,18.5,21.7,15.4,6.2,63,51,37,30.65,30.32,17,8,17,0.00
2013-11-13,65.5,43.8,25.3,30.5,16.4,7.2,65,38,13,30.32,29.94,10,5,10,0.00
2013-11-14,55.4,45.2,35.1,29.3,20.7,12.7,53,38,27,30.06,29.85,18,7,20,0.00
2013-11-15,58.8,43.2,32.7,33.8,21.9,0.0,63,44,25,29.85,29.44,27,11,27,0.00
2013-11-16,54.9,42.6,30.9,24.2,16.9,11.0,58,37,18,29.53,25.42,26,6,26,0.00
2013-11-17,48.2,38.6,25.3,20.0,3.5,-10.9,44,24,14,30.12,29.50,46,15,46,0.00
2013-11-18,57.7,43.3,24.6,12.9,3.2,-7.0,41,20,12,30.18,30.03,18,8,18,0.00
2013-11-19,52.2,38.8,26.4,18.8,11.5,3.4,42,32,24,30.03,29.73,17,9,17,0.00
2013-11-20,60.3,45.8,27.1,25.9,17.4,9.3,51,33,17,30.03,29.76,32,9,33,0.00
2013-11-21,27.0,16.0,10.6,9.4,0.8,-6.3,56,50,46,30.53,30.03,28,16,232,0.00
2013-11-22,29.5,18.3,7.2,8.0,-0.4,-9.3,47,43,38,30.56,30.50,13,6,13,0.00
2013-11-23,27.5,18.4,10.9,7.9,1.3,-4.5,49,47,42,30.65,30.50,13,8,13,0.00
2013-11-24,38.7,26.7,12.7,16.5,8.7,-2.8,55,46,39,30.50,30.00,27,13,27,0.00
2013-11-25,44.1,30.0,19.0,21.3,10.0,4.5,62,44,28,30.27,30.00,23,9,23,0.00
2013-11-26,36.0,26.5,18.0,14.7,7.2,-0.1,58,44,33,30.35,30.24,17,7,17,0.00
2013-11-27,59.4,33.7,14.9,21.8,9.5,-0.8,53,39,14,30.29,29.97,17,8,17,0.00
2013-11-28,39.0,29.4,20.3,19.5,12.0,6.1,57,48,39,30.27,30.09,19,8,19,0.00
2013-11-29,40.5,28.7,19.0,23.6,14.6,7.3,63,55,49,30.21,30.03,47,8,47,0.00
2013-11-30,57.6,39.2,27.9,23.0,13.7,6.7,53,38,14,30.15,30.06,17,9,17,0.00
2013-12-1,55.8,39.0,24.4,23.6,14.7,9.1,55,39,20,30.09,29.79,9,2,9,0.00
2013-12-2,63.1,45.1,30.6,25.6,13.7,7.3,45,29,13,29.79,29.59,0,0,0,0.00
2013-12-3,53.4,33.4,15.8,20.5,11.7,0.3,62,42,26,29.79,29.53,5,0,5,0.00
2013-12-4,16.0,10.4,2.5,2.9,-8.6,-18.0,56,41,37,30.12,29.76,0,0,0,0.00
2013-12-5,12.7,5.2,-2.4,-8.6,-15.4,-22.2,37,37,37,30.24,30.09,0,0,0,0.00
2013-12-6,9.5,2.3,-2.9,-11.5,-18.0,-22.7,37,37,37,30.38,30.24,0,0,0,0.00
2013-12-7,9.0,3.4,-3.1,-12.0,-17.0,-22.9,37,37,37,30.38,30.00,0,0,0,0.00
2013-12-9,23.0,15.9,1.2,-1.3,-5.5,-15.2,45,38,33,30.15,30.00,25,9,28,0.00
2013-12-10,37.2,23.5,8.2,11.6,0.9,-12.3,54,37,24,30.18,29.97,24,10,24,0.00
2013-12-11,31.6,18.2,5.4,10.1,1.9,-6.9,57,49,40,30.41,30.18,23,8,23,0.00
2013-12-12,48.0,28.5,11.1,16.4,4.8,-5.6,52,38,22,30.27,29.88,15,6,15,0.00
2013-12-13,47.8,29.6,20.1,13.1,5.9,1.2,51,38,17,30.09,29.79,20,10,22,0.00
2013-12-14,46.0,32.2,19.2,22.4,10.4,2.7,64,42,25,30.18,30.06,25,10,25,0.00
2013-12-15,55.4,40.0,30.0,16.3,9.1,2.1,41,29,15,30.09,29.97,30,12,30,0.00
2013-12-16,58.1,40.9,24.4,15.3,6.6,-3.5,44,26,12,30.15,29.97,21,10,21,0.00
2013-12-17,50.7,35.7,21.2,20.3,8.7,1.0,45,33,19,30.29,30.03,17,8,17,0.00
2013-12-18,66.4,42.8,28.4,19.4,6.8,-3.4,40,25,10,29.94,29.70,24,9,24,0.00
2013-12-19,35.1,24.5,10.2,18.3,9.6,-1.6,65,53,39,29.91,29.67,28,17,28,0.00
2013-12-20,23.5,14.1,7.5,1.6,-3.5,-8.8,58,46,34,29.91,29.70,26,9,26,0.00
2013-12-21,34.9,22.1,9.3,14.6,0.7,-10.6,56,39,33,29.85,29.62,17,8,17,0.00
2013-12-22,34.3,22.1,12.2,9.7,4.4,-2.7,57,47,32,30.21,29.85,25,9,25,0.00
2013-12-23,21.2,12.6,1.8,5.3,-1.2,-10.3,56,53,46,30.35,30.03,22,10,22,0.00
2013-12-24,43.5,25.6,10.0,23.6,11.8,-3.3,66,56,42,30.21,29.94,30,10,33,0.00
2013-12-25,39.7,27.6,18.1,14.4,8.0,-0.8,67,45,29,30.32,30.09,26,10,27,0.00
2013-12-26,50.7,34.6,19.8,13.1,6.9,1.4,47,32,19,30.18,30.03,21,10,21,0.00
2013-12-27,57.4,36.0,19.8,18.3,8.5,1.5,50,33,17,30.15,29.91,19,6,19,0.00
2013-12-28,54.9,30.6,11.1,21.1,6.3,-7.0,47,37,15,30.15,29.76,38,15,45,0.00
2013-12-29,27.0,15.5,3.6,1.6,-5.7,-13.9,45,38,31,30.21,29.88,32,9,32,0.00
2013-12-30,46.4,31.5,20.5,16.1,6.3,-2.0,45,35,22,30.09,29.85,37,12,37,0.00
2013-12-31,54.5,34.3,19.9,18.0,7.6,-1.2,46,34,18,30.03,29.82,28,9,28,0.00
2014-1-1,31.6,25.0,16.7,13.2,8.9,2.1,60,50,40,30.18,29.82,25,8,231,0.00
2014-1-2,37.6,25.9,14.5,15.1,9.4,3.2,63,50,39,30.15,29.88,17,8,17,0.00